createdAt,value
2019-04-07T00:00:08.946Z,7.42
2019-04-07T00:02:37.285Z,5.75
2019-04-07T00:05:13.000Z,5.33
2019-04-07T00:07:36.603Z,5.58
2019-04-07T00:10:09.918Z,7.20
2019-04-07T00:12:38.298Z,5.22
2019-04-07T00:15:06.979Z,6.25
2019-04-07T00:17:35.385Z,6.50
2019-04-07T00:20:05.448Z,7.28
2019-04-07T00:22:33.728Z,6.58
2019-04-07T00:25:02.585Z,5.67
2019-04-07T00:27:30.873Z,5.12
2019-04-07T00:29:59.897Z,5.40
2019-04-07T00:32:28.444Z,5.03
2019-04-07T00:34:56.891Z,7.25
2019-04-07T00:37:25.090Z,4.75
2019-04-07T00:39:53.334Z,6.60
2019-04-07T00:42:21.530Z,6.05
2019-04-07T00:44:49.740Z,5.28
2019-04-07T00:47:18.562Z,5.92
2019-04-07T00:49:47.533Z,6.03
2019-04-07T00:52:17.451Z,5.10
2019-04-07T00:54:45.908Z,5.95
2019-04-07T00:57:14.216Z,4.60
2019-04-07T00:59:43.119Z,5.58
2019-04-07T01:02:11.334Z,7.97
2019-04-07T01:04:39.682Z,9.10
2019-04-07T01:07:08.146Z,7.05
2019-04-07T01:09:36.374Z,7.12
2019-04-07T01:12:04.982Z,6.78
2019-04-07T01:14:33.627Z,6.15
2019-04-07T01:17:02.413Z,8.33
2019-04-07T01:19:30.751Z,7.50
2019-04-07T01:21:59.065Z,6.65
2019-04-07T01:24:27.715Z,9.25
2019-04-07T01:26:55.952Z,5.60
2019-04-07T01:29:24.498Z,5.90
2019-04-07T01:31:53.305Z,6.47
2019-04-07T01:34:22.454Z,6.62
2019-04-07T01:36:50.739Z,6.97
2019-04-07T01:39:19.435Z,6.95
2019-04-07T01:41:49.583Z,6.35
2019-04-07T01:44:23.351Z,5.20
2019-04-07T01:46:53.437Z,4.85
2019-04-07T01:49:23.807Z,6.35
2019-04-07T01:51:53.817Z,5.85
2019-04-07T01:54:36.207Z,7.58
2019-04-07T01:57:18.447Z,5.05
2019-04-07T01:59:48.361Z,3.72
2019-04-07T02:02:35.399Z,7.17
2019-04-07T02:05:08.246Z,8.33
2019-04-07T02:07:54.523Z,5.95
2019-04-07T02:10:34.079Z,5.00
2019-04-07T02:13:07.411Z,5.70
2019-04-07T02:15:40.600Z,6.03
2019-04-07T02:18:10.513Z,6.65
2019-04-07T02:20:57.828Z,5.08
2019-04-07T02:23:30.606Z,5.47
2019-04-07T02:26:03.606Z,6.35
2019-04-07T02:28:49.566Z,5.10
2019-04-07T02:31:23.440Z,4.30
2019-04-07T02:33:54.437Z,5.90
2019-04-07T02:36:37.654Z,10.20
2019-04-07T02:39:11.232Z,4.45
2019-04-07T02:41:53.679Z,5.50
2019-04-07T02:44:38.959Z,5.35
2019-04-07T02:47:11.601Z,4.40
2019-04-07T02:49:47.571Z,5.20
2019-04-07T02:52:18.475Z,5.65
2019-04-07T02:54:49.650Z,5.87
2019-04-07T02:57:22.363Z,5.33
2019-04-07T03:00:07.767Z,6.80
2019-04-07T03:02:37.845Z,4.80
2019-04-07T03:05:26.650Z,8.80
2019-04-07T03:08:05.769Z,5.67
2019-04-07T03:10:36.608Z,4.28
2019-04-07T03:13:12.827Z,5.85
2019-04-07T03:15:46.217Z,5.83
2019-04-07T03:18:34.492Z,5.87
2019-04-07T03:21:22.426Z,4.90
2019-04-07T03:23:56.430Z,6.15
2019-04-07T03:26:26.534Z,7.53
2019-04-07T03:29:12.734Z,7.10
2019-04-07T03:31:51.024Z,6.50
2019-04-07T03:34:25.860Z,6.72
2019-04-07T03:37:26.235Z,7.08
2019-04-07T03:39:41.078Z,7.30
2019-04-07T03:42:11.019Z,5.15
2019-04-07T03:44:41.120Z,8.93
2019-04-07T03:47:23.499Z,8.38
2019-04-07T03:49:53.477Z,6.60
2019-04-07T03:52:40.493Z,8.15
2019-04-07T03:55:10.499Z,7.22
2019-04-07T03:57:56.978Z,6.28
2019-04-07T04:01:05.230Z,8.43
2019-04-07T04:03:51.913Z,4.42
2019-04-07T04:06:21.858Z,7.45
2019-04-07T04:08:54.907Z,6.10
2019-04-07T04:11:34.267Z,7.15
2019-04-07T04:14:12.037Z,6.25
2019-04-07T04:16:42.417Z,7.87
2019-04-07T04:19:11.082Z,6.65
2019-04-07T04:21:40.304Z,7.83
2019-04-07T04:24:08.683Z,6.80
2019-04-07T04:26:37.889Z,6.05
2019-04-07T04:29:06.198Z,6.35
2019-04-07T04:31:34.436Z,8.35
2019-04-07T04:34:03.360Z,7.50
2019-04-07T04:36:33.668Z,7.05
2019-04-07T04:39:01.862Z,7.50
2019-04-07T04:41:30.080Z,8.73
2019-04-07T04:43:58.301Z,8.08
2019-04-07T04:46:26.503Z,9.75
2019-04-07T04:48:55.495Z,8.15
2019-04-07T04:51:24.151Z,9.25
2019-04-07T04:53:52.360Z,8.63
2019-04-07T04:56:20.567Z,9.03
2019-04-07T04:58:49.709Z,7.90
2019-04-07T05:01:18.908Z,8.10
2019-04-07T05:03:47.480Z,8.73
2019-04-07T05:06:15.776Z,8.15
2019-04-07T05:08:44.407Z,7.15
2019-04-07T05:11:12.677Z,7.70
2019-04-07T05:13:41.196Z,7.42
2019-04-07T05:16:09.491Z,7.60
2019-04-07T05:18:38.255Z,8.50
2019-04-07T05:21:06.635Z,11.45
2019-04-07T05:23:37.020Z,13.62
2019-04-07T05:26:05.764Z,10.85
2019-04-07T05:28:36.867Z,11.40
2019-04-07T05:31:04.455Z,9.78
2019-04-07T05:33:32.719Z,9.50
2019-04-07T05:36:00.934Z,9.85
2019-04-07T05:38:29.159Z,9.58
2019-04-07T05:40:57.516Z,12.78
2019-04-07T05:43:26.173Z,8.40
2019-04-07T05:45:56.268Z,9.88
2019-04-07T05:48:24.938Z,9.65
2019-04-07T05:50:53.836Z,11.00
2019-04-07T05:53:22.095Z,9.38
2019-04-07T05:55:53.762Z,11.93
2019-04-07T05:58:20.293Z,10.90
2019-04-07T06:00:49.432Z,11.40
2019-04-07T06:03:18.721Z,9.03
2019-04-07T06:05:51.196Z,9.65
2019-04-07T06:08:27.756Z,12.15
2019-04-07T06:10:49.074Z,12.00
2019-04-07T06:13:17.644Z,11.33
2019-04-07T06:15:46.739Z,11.08
2019-04-07T06:18:15.039Z,10.38
2019-04-07T06:20:44.843Z,12.45
2019-04-07T06:23:13.813Z,13.28
2019-04-07T06:25:43.705Z,13.00
2019-04-07T06:28:16.029Z,9.68
2019-04-07T06:30:42.798Z,12.68
2019-04-07T06:33:13.275Z,13.25
2019-04-07T06:35:44.978Z,11.95
2019-04-07T06:38:12.301Z,12.80
2019-04-07T06:40:40.557Z,10.88
2019-04-07T06:43:09.336Z,13.18
2019-04-07T06:45:42.292Z,10.25
2019-04-07T06:48:13.363Z,10.17
2019-04-07T06:50:56.019Z,12.35
2019-04-07T06:53:30.170Z,11.48
2019-04-07T06:56:09.053Z,12.73
2019-04-07T06:58:57.007Z,12.35
2019-04-07T07:01:35.698Z,12.55
2019-04-07T07:04:21.141Z,11.33
2019-04-07T07:07:19.959Z,11.75
2019-04-07T07:09:50.185Z,9.10
2019-04-07T07:12:33.553Z,12.45
2019-04-07T07:15:03.243Z,10.78
2019-04-07T07:17:52.266Z,11.03
2019-04-07T07:20:36.122Z,11.10
2019-04-07T07:23:10.159Z,8.48
2019-04-07T07:25:38.684Z,9.18
2019-04-07T07:28:07.589Z,9.43
2019-04-07T07:30:37.138Z,8.88
2019-04-07T07:33:09.670Z,8.88
2019-04-07T07:35:36.377Z,8.23
2019-04-07T07:38:04.926Z,7.78
2019-04-07T07:40:34.955Z,7.83
2019-04-07T07:43:03.527Z,11.48
2019-04-07T07:45:32.928Z,10.13
2019-04-07T07:48:02.074Z,12.43
2019-04-07T07:50:30.380Z,8.70
2019-04-07T07:52:58.698Z,8.40
2019-04-07T07:55:27.419Z,7.03
2019-04-07T07:57:58.922Z,10.48
2019-04-07T08:00:25.768Z,11.63
2019-04-07T08:02:54.649Z,10.25
2019-04-07T08:05:24.779Z,16.30
2019-04-07T08:07:53.963Z,10.55
2019-04-07T08:10:25.071Z,10.40
2019-04-07T08:12:53.147Z,9.33
2019-04-07T08:15:25.471Z,10.35
2019-04-07T08:17:52.108Z,7.47
2019-04-07T08:20:20.393Z,6.72
2019-04-07T08:22:49.260Z,7.97
2019-04-07T08:25:20.366Z,7.75
2019-04-07T08:27:47.694Z,10.23
2019-04-07T08:30:16.314Z,9.68
2019-04-07T08:32:45.325Z,8.03
2019-04-07T08:35:14.329Z,10.23
2019-04-07T08:37:45.789Z,10.23
2019-04-07T08:40:12.997Z,8.08
2019-04-07T08:42:41.841Z,8.95
2019-04-07T08:45:10.142Z,10.45
2019-04-07T08:47:39.106Z,10.55
2019-04-07T08:50:09.190Z,8.68
2019-04-07T08:52:40.707Z,7.20
2019-04-07T08:55:07.654Z,10.70
2019-04-07T08:57:36.979Z,10.68
2019-04-07T09:00:13.254Z,7.53
2019-04-07T09:05:06.760Z,12.70
2019-04-07T09:07:35.055Z,15.30
2019-04-07T09:10:04.260Z,17.30
2019-04-07T09:12:32.507Z,15.93
2019-04-07T09:15:03.969Z,13.55
2019-04-07T09:17:50.590Z,16.20
2019-04-07T09:20:30.169Z,14.60
2019-04-07T09:23:00.580Z,20.05
2019-04-07T09:25:46.810Z,17.42
2019-04-07T09:28:17.922Z,16.93
2019-04-07T09:30:48.355Z,16.87
2019-04-07T09:33:37.711Z,18.70
2019-04-07T09:36:11.172Z,18.15
2019-04-07T09:39:01.432Z,19.33
2019-04-07T09:41:41.534Z,19.35
2019-04-07T09:44:22.001Z,23.73
2019-04-07T09:47:00.835Z,22.02
2019-04-07T09:49:30.967Z,17.65
2019-04-07T09:52:10.210Z,18.90
2019-04-07T09:54:44.732Z,17.25
2019-04-07T09:57:23.770Z,19.60
2019-04-07T10:00:09.949Z,21.52
2019-04-07T10:02:55.251Z,22.15
2019-04-07T10:05:41.113Z,19.75
2019-04-07T10:08:23.783Z,24.15
2019-04-07T10:11:05.799Z,21.35
2019-04-07T10:13:42.073Z,18.55
2019-04-07T10:16:31.283Z,21.15
2019-04-07T10:19:00.702Z,17.48
2019-04-07T10:21:47.486Z,17.73
2019-04-07T10:24:17.598Z,22.22
2019-04-07T10:27:02.971Z,21.35
2019-04-07T10:29:42.740Z,26.60
2019-04-07T10:32:13.596Z,23.67
2019-04-07T10:34:49.815Z,28.02
2019-04-07T10:37:25.618Z,27.60
2019-04-07T10:40:18.875Z,34.27
2019-04-07T10:42:46.622Z,28.42
2019-04-07T10:45:16.500Z,29.87
2019-04-07T10:47:49.080Z,29.07
2019-04-07T10:50:28.207Z,32.28
2019-04-07T10:53:01.005Z,29.23
2019-04-07T10:55:34.155Z,34.27
2019-04-07T10:58:16.901Z,33.33
2019-04-07T11:01:03.122Z,26.60
2019-04-07T11:03:39.463Z,28.80
2019-04-07T11:06:16.045Z,30.20
2019-04-07T11:08:45.541Z,29.15
2019-04-07T11:11:24.671Z,32.48
2019-04-07T11:14:04.616Z,33.78
2019-04-07T11:16:44.195Z,30.77
2019-04-07T11:19:14.684Z,30.15
2019-04-07T11:21:53.874Z,29.85
2019-04-07T11:24:27.499Z,34.15
2019-04-07T11:27:16.701Z,32.63
2019-04-07T11:29:46.721Z,26.77
2019-04-07T11:32:22.870Z,32.20
2019-04-07T11:34:53.049Z,28.20
2019-04-07T11:37:23.357Z,30.57
2019-04-07T11:39:54.636Z,30.52
2019-04-07T11:42:41.535Z,33.45
2019-04-07T11:45:27.776Z,29.57
2019-04-07T11:47:58.100Z,32.05
2019-04-07T11:50:45.025Z,29.67
2019-04-07T11:53:18.107Z,31.57
2019-04-07T11:55:48.582Z,28.87
2019-04-07T11:58:25.868Z,26.62
2019-04-07T12:00:53.879Z,27.90
2019-04-07T12:03:40.538Z,26.37
2019-04-07T12:06:14.209Z,28.67
2019-04-07T12:09:02.233Z,27.35
2019-04-07T12:11:49.384Z,25.95
2019-04-07T12:14:31.960Z,28.77
2019-04-07T12:17:14.861Z,31.37
2019-04-07T12:19:58.097Z,26.80
2019-04-07T12:22:48.005Z,23.20
2019-04-07T12:25:33.500Z,25.77
2019-04-07T12:28:07.484Z,25.15
2019-04-07T12:30:43.719Z,28.65
2019-04-07T12:33:23.328Z,28.05
2019-04-07T12:35:56.322Z,27.15
2019-04-07T12:38:29.078Z,25.13
2019-04-07T12:41:15.100Z,27.02
2019-04-07T12:43:45.912Z,27.48
2019-04-07T12:46:30.879Z,27.07
2019-04-07T12:49:10.031Z,26.12
2019-04-07T12:51:40.009Z,27.62
2019-04-07T12:54:25.311Z,24.98
2019-04-07T12:56:58.045Z,28.92
2019-04-07T12:59:28.274Z,24.85
2019-04-07T13:02:05.441Z,27.65
2019-04-07T13:04:32.573Z,29.77
2019-04-07T13:07:05.229Z,25.97
2019-04-07T13:09:51.804Z,24.72
2019-04-07T13:12:24.728Z,25.00
2019-04-07T13:14:56.051Z,24.60
2019-04-07T13:17:44.428Z,26.15
2019-04-07T13:20:31.137Z,24.82
2019-04-07T13:23:03.802Z,24.37
2019-04-07T13:25:53.183Z,24.90
2019-04-07T13:28:21.740Z,24.72
2019-04-07T13:30:52.019Z,20.68
2019-04-07T13:33:27.166Z,19.45
2019-04-07T13:36:10.596Z,20.25
2019-04-07T13:38:46.901Z,18.70
2019-04-07T13:41:20.240Z,19.07
2019-04-07T13:44:01.524Z,20.30
2019-04-07T13:46:36.110Z,18.62
2019-04-07T13:49:05.287Z,19.23
2019-04-07T13:51:52.547Z,18.52
2019-04-07T13:54:23.067Z,18.65
2019-04-07T13:57:10.171Z,18.60
2019-04-07T13:59:42.936Z,19.60
2019-04-07T14:02:12.123Z,16.40
2019-04-07T14:04:42.394Z,15.53
2019-04-07T14:07:29.501Z,14.47
2019-04-07T14:10:16.275Z,15.63
2019-04-07T14:13:04.738Z,14.93
2019-04-07T14:15:34.738Z,15.70
2019-04-07T14:18:04.916Z,15.53
2019-04-07T14:20:38.740Z,16.07
2019-04-07T14:23:27.576Z,17.12
2019-04-07T14:26:10.325Z,15.35
2019-04-07T14:28:56.655Z,15.05
2019-04-07T14:31:26.940Z,13.83
2019-04-07T14:34:13.986Z,14.68
2019-04-07T14:36:43.988Z,14.10
2019-04-07T14:39:17.655Z,13.78
2019-04-07T14:42:07.452Z,14.98
2019-04-07T14:44:40.156Z,11.93
2019-04-07T14:47:22.565Z,13.18
2019-04-07T14:50:04.891Z,12.20
2019-04-07T14:52:34.930Z,12.58
2019-04-07T14:55:20.680Z,13.90
2019-04-07T14:58:00.165Z,11.78
2019-04-07T15:00:42.794Z,14.15
2019-04-07T15:03:11.368Z,15.20
2019-04-07T15:05:45.013Z,13.43
2019-04-07T15:08:15.247Z,15.23
2019-04-07T15:10:53.971Z,14.73
2019-04-07T15:13:29.419Z,14.00
2019-04-07T15:15:58.336Z,13.58
2019-04-07T15:18:27.526Z,16.67
2019-04-07T15:20:56.137Z,18.05
2019-04-07T15:23:25.066Z,18.20
2019-04-07T15:25:53.426Z,19.25
2019-04-07T15:28:22.564Z,16.90
2019-04-07T15:30:51.709Z,17.92
2019-04-07T15:33:21.016Z,19.73
2019-04-07T15:35:50.507Z,18.45
2019-04-07T15:38:22.982Z,19.20
2019-04-07T15:40:49.500Z,19.75
2019-04-07T15:43:17.811Z,18.85
2019-04-07T15:45:46.887Z,17.12
2019-04-07T15:48:17.049Z,18.80
2019-04-07T15:50:45.505Z,19.23
2019-04-07T15:53:15.329Z,19.05
2019-04-07T15:55:51.036Z,16.95
2019-04-07T15:58:14.966Z,19.12
2019-04-07T16:00:45.154Z,19.95
2019-04-07T16:03:15.708Z,18.95
2019-04-07T16:05:46.341Z,24.90
2019-04-07T16:08:14.851Z,19.65
2019-04-07T16:10:43.237Z,19.40
2019-04-07T16:13:11.788Z,20.30
2019-04-07T16:15:59.665Z,18.37
2019-04-07T16:18:28.511Z,20.62
2019-04-07T16:20:57.458Z,19.57
2019-04-07T16:23:26.217Z,18.20
2019-04-07T16:25:57.520Z,17.25
2019-04-07T16:28:24.689Z,19.98
2019-04-07T16:30:53.000Z,16.82
2019-04-07T16:33:21.736Z,18.00
2019-04-07T16:35:53.797Z,17.35
2019-04-07T16:38:20.622Z,19.30
2019-04-07T16:40:50.200Z,16.95
2019-04-07T16:43:19.075Z,19.07
2019-04-07T16:45:48.569Z,15.88
2019-04-07T16:48:16.982Z,18.32
2019-04-07T16:50:46.256Z,17.98
2019-04-07T16:53:16.277Z,18.67
2019-04-07T16:55:48.928Z,19.57
2019-04-07T16:58:14.632Z,18.10
2019-04-07T17:00:42.847Z,17.52
2019-04-07T17:03:27.735Z,17.62
2019-04-07T17:05:59.037Z,16.97
2019-04-07T17:08:28.609Z,17.85
2019-04-07T17:10:56.202Z,18.85
2019-04-07T17:13:35.608Z,18.77
2019-04-07T17:15:55.259Z,16.73
2019-04-07T17:18:37.116Z,16.12
2019-04-07T17:21:15.786Z,16.07
2019-04-07T17:23:45.356Z,15.60
2019-04-07T17:26:15.588Z,18.57
2019-04-07T17:28:45.975Z,16.23
2019-04-07T17:31:14.254Z,17.02
2019-04-07T17:33:42.744Z,16.37
2019-04-07T17:36:15.443Z,18.67
2019-04-07T17:38:51.968Z,17.17
2019-04-07T17:41:21.183Z,17.00
2019-04-07T17:43:54.418Z,21.10
2019-04-07T17:46:36.124Z,17.65
2019-04-07T17:49:09.947Z,17.50
2019-04-07T17:51:43.853Z,17.07
2019-04-07T17:54:29.063Z,20.45
2019-04-07T17:57:01.179Z,17.27
2019-04-07T17:59:48.139Z,18.17
2019-04-07T18:02:29.330Z,15.75
2019-04-07T18:05:14.802Z,18.20
2019-04-07T18:08:01.826Z,16.23
2019-04-07T18:10:48.692Z,18.57
2019-04-07T18:13:41.960Z,19.37
2019-04-07T18:16:06.826Z,16.75
2019-04-07T18:18:56.254Z,17.67
2019-04-07T18:21:31.411Z,19.02
2019-04-07T18:24:18.092Z,16.90
2019-04-07T18:26:54.859Z,18.05
2019-04-07T18:29:40.050Z,19.60
2019-04-07T18:32:16.580Z,19.10
2019-04-07T18:34:49.647Z,19.40
2019-04-07T18:37:20.403Z,17.30
2019-04-07T18:40:05.627Z,17.98
2019-04-07T18:42:41.411Z,18.60
2019-04-07T18:45:15.996Z,18.35
2019-04-07T18:47:45.998Z,19.27
2019-04-07T18:50:36.978Z,19.20
2019-04-07T18:53:22.176Z,18.32
2019-04-07T18:55:52.519Z,19.65
2019-04-07T18:58:25.729Z,20.68
2019-04-07T19:01:13.636Z,20.57
2019-04-07T19:03:53.369Z,19.95
2019-04-07T19:06:21.344Z,20.45
2019-04-07T19:08:55.051Z,20.88
2019-04-07T19:11:30.031Z,21.20
2019-04-07T19:14:31.677Z,19.90
2019-04-07T19:16:55.433Z,19.82
2019-04-07T19:19:32.215Z,20.45
2019-04-07T19:22:11.169Z,18.52
2019-04-07T19:24:57.891Z,20.37
2019-04-07T19:27:43.216Z,19.95
2019-04-07T19:30:19.393Z,21.23
2019-04-07T19:32:52.666Z,18.73
2019-04-07T19:35:40.899Z,21.23
2019-04-07T19:38:09.488Z,18.48
2019-04-07T19:40:51.437Z,19.07
2019-04-07T19:43:30.334Z,20.12
2019-04-07T19:46:14.643Z,22.73
2019-04-07T19:48:44.952Z,20.35
2019-04-07T19:51:15.500Z,20.72
2019-04-07T19:54:00.532Z,21.37
2019-04-07T19:59:26.794Z,21.33
2019-04-07T20:02:05.533Z,24.35
2019-04-07T20:04:35.734Z,21.87
2019-04-07T20:07:14.582Z,21.07
2019-04-07T20:09:47.811Z,20.17
2019-04-07T20:12:34.621Z,19.30
2019-04-07T20:15:16.061Z,19.37
2019-04-07T20:17:50.551Z,20.43
2019-04-07T20:20:35.878Z,20.25
2019-04-07T20:23:11.998Z,22.62
2019-04-07T20:25:46.346Z,22.70
2019-04-07T20:28:19.794Z,20.85
2019-04-07T20:30:59.670Z,19.80
2019-04-07T20:33:34.309Z,22.67
2019-04-07T20:36:14.820Z,20.95
2019-04-07T20:38:59.283Z,20.37
2019-04-07T20:41:34.256Z,21.62
2019-04-07T20:44:19.656Z,22.50
2019-04-07T20:46:56.986Z,21.82
2019-04-07T20:49:40.298Z,21.68
2019-04-07T20:52:26.526Z,23.47
2019-04-07T20:55:13.526Z,24.05
2019-04-07T20:58:13.153Z,22.65
2019-04-07T21:00:37.186Z,26.90
2019-04-07T21:03:17.159Z,24.02
2019-04-07T21:05:37.829Z,21.33
2019-04-07T21:08:14.472Z,20.43
2019-04-07T21:10:56.555Z,23.42
2019-04-07T21:13:43.313Z,20.05
2019-04-07T21:16:23.826Z,22.90
2019-04-07T21:19:04.145Z,21.97
2019-04-07T21:21:43.293Z,23.38
2019-04-07T21:24:18.229Z,21.80
2019-04-07T21:27:03.799Z,22.62
2019-04-07T21:29:45.597Z,22.13
2019-04-07T21:32:29.977Z,20.15
2019-04-07T21:35:12.934Z,21.85
2019-04-07T21:37:51.969Z,22.10
2019-04-07T21:40:28.650Z,22.32
2019-04-07T21:43:04.698Z,21.20
2019-04-07T21:45:45.694Z,21.55
2019-04-07T21:48:30.606Z,19.17
2019-04-07T21:51:15.358Z,21.40
2019-04-07T21:53:44.281Z,21.07
2019-04-07T21:56:17.979Z,21.52
2019-04-07T22:01:30.431Z,20.20
2019-04-07T22:04:21.079Z,18.62
2019-04-07T22:06:58.745Z,18.65
2019-04-07T22:09:28.898Z,20.88
2019-04-07T22:11:58.005Z,18.15
2019-04-07T22:14:28.394Z,19.98
2019-04-07T22:16:56.867Z,20.57
2019-04-07T22:19:25.250Z,20.88
2019-04-07T22:21:56.539Z,20.90
2019-04-07T22:24:23.439Z,20.08
2019-04-07T22:26:51.670Z,20.15
2019-04-07T22:29:20.371Z,20.75
2019-04-07T22:31:51.363Z,20.90
2019-04-07T22:34:20.640Z,20.90
2019-04-07T22:36:49.642Z,23.70
2019-04-07T22:39:18.446Z,20.17
2019-04-07T22:41:48.290Z,20.27
2019-04-07T22:44:19.932Z,20.72
2019-04-07T22:46:49.533Z,21.07
2019-04-07T22:49:17.637Z,22.62
2019-04-07T22:51:47.178Z,20.37
2019-04-07T22:54:16.712Z,18.55
2019-04-07T22:56:45.189Z,18.87
2019-04-07T22:59:13.451Z,19.55
2019-04-07T23:01:41.677Z,18.48
2019-04-07T23:04:10.767Z,18.17
2019-04-07T23:06:39.109Z,18.48
2019-04-07T23:09:07.896Z,17.32
2019-04-07T23:11:36.314Z,19.48
2019-04-07T23:14:04.539Z,16.45
2019-04-07T23:16:32.857Z,19.02
2019-04-07T23:19:01.104Z,21.15
2019-04-07T23:21:29.939Z,18.57
2019-04-07T23:23:58.272Z,21.55
2019-04-07T23:26:26.526Z,19.32
2019-04-07T23:28:54.743Z,19.40
2019-04-07T23:31:23.615Z,18.10
2019-04-07T23:33:52.274Z,18.12
2019-04-07T23:36:20.615Z,19.55
2019-04-07T23:38:49.607Z,18.30
2019-04-07T23:41:18.172Z,21.62
2019-04-07T23:43:46.638Z,20.43
2019-04-07T23:46:23.942Z,22.75
2019-04-07T23:48:47.590Z,19.17
2019-04-07T23:51:16.452Z,19.27
2019-04-07T23:54:07.436Z,17.80
2019-04-07T23:56:35.991Z,23.27
2019-04-07T23:59:04.209Z,20.75
